Big Bear Lake, California
Current Conditions -  °F | °C
As of 5:35 AM on Tuesday 21 Oct 2014 (Local Time) from KL35 Reporting Station
Clear Clear  
Wind Chill: 32°   Ceiling: Unl
Heat Index: 32°   Visibility: 10mi
Dew Point: 30°   Wind: 3mph
Humidity: 93%   Direction: 260°W
Pressure: 30.12"   Gusts: NA
Location:  34.24°N, 116.93°W
Report Text: KL35 211235Z AUTO 26003KT 10SM CLR 00/M01 A3012 RMK AO2
Loading
Personal Weather Stations






























Interactive Weather Map New forecast layout! Learn more

10-Day Weather Forecast

Advertisements
Track Severe Weather on mobile